Terminal Aerodrome Forecast
Issued by NWS

Home | Current Version | Previous Version | Text Only | Print | Product List | Glossary On
Versions: 1 2 3 4 5 6 7 8 9 10 11 12 13 14 15 16 17 18
000
FTUS43 KTOP 202300
TAFFOE
TAF
KFOE 202320Z 2100/2124 18014G20KT P6SM SCT300
     FM210100 18013KT P6SM SCT300
     FM211400 20016G24KT P6SM FEW060 SCT300=

USA.gov is the U.S. government's official web portal to all federal, state and local government web resources and services.